createdAt,value
2017-12-29T00:01:00.685Z,20.05
2017-12-29T00:02:09.625Z,20.02
2017-12-29T00:03:18.567Z,20.1
2017-12-29T00:04:27.775Z,20.08
2017-12-29T00:05:36.466Z,20.08
2017-12-29T00:06:45.429Z,20.08
2017-12-29T00:07:54.371Z,20.08
2017-12-29T00:09:03.310Z,20.13
2017-12-29T00:10:12.262Z,20.08
2017-12-29T00:11:20.947Z,20.11
2017-12-29T00:12:29.890Z,20.1
2017-12-29T00:13:38.836Z,20.11
2017-12-29T00:14:48.038Z,20.11
2017-12-29T00:15:56.741Z,20.05
2017-12-29T00:17:05.686Z,20.02
2017-12-29T00:19:23.334Z,20.1
2017-12-29T00:20:32.555Z,20.03
2017-12-29T00:21:42.020Z,20.11
2017-12-29T00:22:50.698Z,19.98
2017-12-29T00:23:59.628Z,19.99
2017-12-29T00:25:09.095Z,20.05
2017-12-29T00:26:18.043Z,19.96
2017-12-29T00:27:27.011Z,20.01
2017-12-29T00:28:36.487Z,20.05
2017-12-29T00:29:45.959Z,20.01
2017-12-29T00:30:54.893Z,20.01
2017-12-29T00:32:03.830Z,20.05
2017-12-29T00:33:13.027Z,20.03
2017-12-29T00:34:21.969Z,19.98
2017-12-29T00:35:30.640Z,20.06
2017-12-29T00:36:40.103Z,19.98
2017-12-29T00:37:49.111Z,19.99
2017-12-29T00:38:58.052Z,19.99
2017-12-29T00:40:07.503Z,19.99
2017-12-29T00:41:16.958Z,20.01
2017-12-29T00:42:25.916Z,20.03
2017-12-29T00:43:34.860Z,19.99
2017-12-29T00:44:44.324Z,19.98
2017-12-29T00:45:53.259Z,20.05
2017-12-29T00:47:02.459Z,20.02
2017-12-29T00:48:11.142Z,20.02
2017-12-29T00:49:20.087Z,20.02
2017-12-29T00:50:29.814Z,20.01
2017-12-29T00:51:39.267Z,19.96
2017-12-29T00:52:48.207Z,19.99
2017-12-29T00:53:57.408Z,20.02
2017-12-29T00:55:06.096Z,20.05
2017-12-29T00:56:15.034Z,19.98
2017-12-29T00:57:24.242Z,19.95
2017-12-29T00:58:33.705Z,19.95
2017-12-29T00:59:42.372Z,20.02
2017-12-29T01:00:51.310Z,19.99
2017-12-29T01:02:00.506Z,19.98
2017-12-29T01:03:09.188Z,20.05
2017-12-29T01:04:18.124Z,19.98
2017-12-29T01:05:26.804Z,19.98
2017-12-29T01:06:36.318Z,19.98
2017-12-29T01:07:46.038Z,19.98
2017-12-29T01:08:54.967Z,19.98
2017-12-29T01:10:03.938Z,20.01
2017-12-29T01:11:12.868Z,20.02
2017-12-29T01:12:21.545Z,19.95
2017-12-29T01:13:30.744Z,19.98
2017-12-29T01:14:39.970Z,20.02
2017-12-29T01:15:49.440Z,20.03
2017-12-29T01:16:58.111Z,19.99
2017-12-29T01:18:07.562Z,20.02
2017-12-29T01:19:17.012Z,19.99
2017-12-29T01:20:25.674Z,19.98
2017-12-29T01:21:34.608Z,20.01
2017-12-29T01:22:43.801Z,20.05
2017-12-29T01:23:52.732Z,20.03
2017-12-29T01:25:01.398Z,19.99
2017-12-29T01:26:10.326Z,20.03
2017-12-29T01:27:19.519Z,19.99
2017-12-29T01:28:28.449Z,19.96
2017-12-29T01:29:37.371Z,19.94
2017-12-29T01:30:46.578Z,20.03
2017-12-29T01:31:55.500Z,19.95
2017-12-29T01:33:04.941Z,19.91
2017-12-29T01:34:14.387Z,19.94
2017-12-29T01:35:23.578Z,20.01
2017-12-29T01:36:32.515Z,19.96
2017-12-29T01:37:41.732Z,19.99
2017-12-29T01:38:51.189Z,20.01
2017-12-29T01:40:00.127Z,19.91
2017-12-29T01:41:09.062Z,19.99
2017-12-29T01:42:17.736Z,19.87
2017-12-29T01:43:26.399Z,19.94
2017-12-29T01:44:35.071Z,19.94
2017-12-29T01:45:44.789Z,19.86
2017-12-29T01:46:53.721Z,19.95
2017-12-29T01:48:02.398Z,19.99
2017-12-29T01:49:11.604Z,19.86
2017-12-29T01:50:20.801Z,19.87
2017-12-29T01:51:29.724Z,19.83
2017-12-29T01:52:38.938Z,19.84
2017-12-29T01:53:47.613Z,19.94
2017-12-29T01:54:56.281Z,19.92
2017-12-29T01:56:05.230Z,19.84
2017-12-29T01:57:14.149Z,19.91
2017-12-29T01:58:23.605Z,19.84
2017-12-29T01:59:33.044Z,19.88
2017-12-29T02:00:41.743Z,19.83
2017-12-29T02:01:50.946Z,19.86
2017-12-29T02:03:00.140Z,19.88
2017-12-29T02:04:09.078Z,19.92
2017-12-29T02:05:18.543Z,19.92
2017-12-29T02:06:27.473Z,19.87
2017-12-29T02:07:36.408Z,19.86
2017-12-29T02:08:45.346Z,19.83
2017-12-29T02:09:54.277Z,19.84
2017-12-29T02:11:02.958Z,19.87
2017-12-29T02:12:12.153Z,19.83
2017-12-29T02:13:21.349Z,19.86
2017-12-29T02:14:30.281Z,19.83
2017-12-29T02:15:38.955Z,19.92
2017-12-29T02:16:48.139Z,19.86
2017-12-29T02:17:57.082Z,19.84
2017-12-29T02:19:06.271Z,19.86
2017-12-29T02:20:15.219Z,19.94
2017-12-29T02:21:24.156Z,19.87
2017-12-29T02:22:33.606Z,19.84
2017-12-29T02:23:42.813Z,19.87
2017-12-29T02:24:51.750Z,19.84
2017-12-29T02:26:00.695Z,19.84
2017-12-29T02:27:09.365Z,19.86
2017-12-29T02:28:18.053Z,19.83
2017-12-29T02:29:27.272Z,19.87
2017-12-29T02:30:35.938Z,19.86
2017-12-29T02:31:45.660Z,19.84
2017-12-29T02:32:54.589Z,19.87
2017-12-29T02:34:03.807Z,19.8
2017-12-29T02:35:13.019Z,19.88
2017-12-29T02:36:21.955Z,19.86
2017-12-29T02:37:30.881Z,19.77
2017-12-29T02:38:40.072Z,19.83
2017-12-29T02:39:48.805Z,19.84
2017-12-29T02:40:57.936Z,19.86
2017-12-29T02:42:06.882Z,19.8
2017-12-29T02:43:15.873Z,19.77
2017-12-29T02:44:24.829Z,19.76
2017-12-29T02:45:33.770Z,19.87
2017-12-29T02:46:42.470Z,19.76
2017-12-29T02:47:51.690Z,19.83
2017-12-29T02:49:00.897Z,19.76
2017-12-29T02:50:10.611Z,19.77
2017-12-29T02:51:19.807Z,19.73
2017-12-29T02:52:28.740Z,19.8
2017-12-29T02:53:38.194Z,19.78
2017-12-29T02:54:47.135Z,19.81
2017-12-29T02:55:56.356Z,19.87
2017-12-29T02:57:05.558Z,19.83
2017-12-29T02:58:14.505Z,19.76
2017-12-29T02:59:23.437Z,19.8
2017-12-29T03:00:32.122Z,19.78
2017-12-29T03:01:41.313Z,19.86
2017-12-29T03:02:49.991Z,19.86
2017-12-29T03:03:58.927Z,19.86
2017-12-29T03:05:07.590Z,19.86
2017-12-29T03:06:16.775Z,19.74
2017-12-29T03:07:25.699Z,19.87
2017-12-29T03:08:34.634Z,19.76
2017-12-29T03:09:43.559Z,19.78
2017-12-29T03:10:52.755Z,19.84
2017-12-29T03:12:01.677Z,19.86
2017-12-29T03:13:10.862Z,19.83
2017-12-29T03:14:20.322Z,19.78
2017-12-29T03:15:29.250Z,19.81
2017-12-29T03:16:38.185Z,19.78
2017-12-29T03:17:46.871Z,19.78
2017-12-29T03:18:56.061Z,19.77
2017-12-29T03:20:04.742Z,19.8
2017-12-29T03:21:14.205Z,19.74
2017-12-29T03:22:23.133Z,19.78
2017-12-29T03:23:31.808Z,19.77
2017-12-29T03:24:40.487Z,19.74
2017-12-29T03:25:49.677Z,19.73
2017-12-29T03:26:58.350Z,19.76
2017-12-29T03:28:07.049Z,19.74
2017-12-29T03:29:16.513Z,19.76
2017-12-29T03:30:25.445Z,19.76
2017-12-29T03:31:34.377Z,19.73
2017-12-29T03:32:43.577Z,19.74
2017-12-29T03:33:52.501Z,19.74
2017-12-29T03:35:01.719Z,19.74
2017-12-29T03:36:10.652Z,19.76
2017-12-29T03:37:20.108Z,19.77
2017-12-29T03:38:29.039Z,19.76
2017-12-29T03:39:38.251Z,19.74
2017-12-29T03:40:47.713Z,19.71
2017-12-29T03:41:57.179Z,19.69
2017-12-29T03:43:06.400Z,19.73
2017-12-29T03:44:15.856Z,19.74
2017-12-29T03:45:25.053Z,19.71
2017-12-29T03:46:34.246Z,19.61
2017-12-29T03:47:43.197Z,19.66
2017-12-29T03:48:52.127Z,19.77
2017-12-29T03:50:01.363Z,19.68
2017-12-29T03:51:10.299Z,19.71
2017-12-29T03:52:19.486Z,19.73
2017-12-29T03:53:28.155Z,19.66
2017-12-29T03:54:37.609Z,19.71
2017-12-29T03:55:46.812Z,19.8
2017-12-29T03:56:56.000Z,19.65
2017-12-29T03:58:04.669Z,19.73
2017-12-29T03:59:13.615Z,19.73
2017-12-29T04:00:22.620Z,19.66
2017-12-29T04:01:31.304Z,19.65
2017-12-29T04:02:40.489Z,19.66
2017-12-29T04:03:49.435Z,19.65
2017-12-29T04:04:58.687Z,19.71
2017-12-29T04:06:07.356Z,19.69
2017-12-29T04:07:16.293Z,19.74
2017-12-29T04:08:24.962Z,19.65
2017-12-29T04:09:33.636Z,19.65
2017-12-29T04:10:42.569Z,19.76
2017-12-29T04:11:52.034Z,19.65
2017-12-29T04:13:00.706Z,19.63
2017-12-29T04:14:09.388Z,19.68
2017-12-29T04:15:18.582Z,19.65
2017-12-29T04:16:27.769Z,19.68
2017-12-29T04:17:36.725Z,19.71
2017-12-29T04:18:45.652Z,19.66
2017-12-29T04:19:54.328Z,19.63
2017-12-29T04:21:03.787Z,19.63
2017-12-29T04:22:12.459Z,19.63
2017-12-29T04:23:21.419Z,19.69
2017-12-29T04:24:30.621Z,19.73
2017-12-29T04:25:39.872Z,19.68
2017-12-29T04:26:49.086Z,19.66
2017-12-29T04:27:58.533Z,19.69
2017-12-29T04:29:07.207Z,19.69
2017-12-29T04:30:16.397Z,19.68
2017-12-29T04:31:25.324Z,19.68
2017-12-29T04:32:34.518Z,19.73
2017-12-29T04:33:43.453Z,19.61
2017-12-29T04:34:52.398Z,19.65
2017-12-29T04:36:01.599Z,19.62
2017-12-29T04:37:10.541Z,19.69
2017-12-29T04:38:19.473Z,19.63
2017-12-29T04:39:28.162Z,19.68
2017-12-29T04:40:36.842Z,19.69
2017-12-29T04:41:45.790Z,19.59
2017-12-29T04:42:54.724Z,19.62
2017-12-29T04:44:03.419Z,19.69
2017-12-29T04:45:12.354Z,19.63
2017-12-29T04:46:21.550Z,19.68
2017-12-29T04:47:31.027Z,19.68
2017-12-29T04:48:39.954Z,19.66
2017-12-29T04:49:48.635Z,19.59
2017-12-29T04:50:57.831Z,19.68
2017-12-29T04:52:06.766Z,19.68
2017-12-29T04:53:15.719Z,19.56
2017-12-29T04:54:24.967Z,19.68
2017-12-29T04:55:34.165Z,19.65
2017-12-29T04:56:42.838Z,19.63
2017-12-29T04:57:51.784Z,19.61
2017-12-29T04:59:00.720Z,19.65
2017-12-29T05:00:09.401Z,19.58
2017-12-29T05:01:18.603Z,19.59
2017-12-29T05:02:27.293Z,19.61
2017-12-29T05:03:36.228Z,19.56
2017-12-29T05:04:46.438Z,19.58
2017-12-29T05:05:55.370Z,19.59
2017-12-29T05:07:04.457Z,19.56
2017-12-29T05:08:13.457Z,19.62
2017-12-29T05:09:22.725Z,19.61
2017-12-29T05:10:32.039Z,19.62
2017-12-29T05:11:40.824Z,19.59
2017-12-29T05:12:50.349Z,19.56
2017-12-29T05:13:59.324Z,19.62
2017-12-29T05:15:08.587Z,19.51
2017-12-29T05:16:17.262Z,19.58
2017-12-29T05:17:26.305Z,19.61
2017-12-29T05:18:34.997Z,19.59
2017-12-29T05:19:43.941Z,19.56
2017-12-29T05:20:53.592Z,19.59
2017-12-29T05:22:02.527Z,19.59
2017-12-29T05:23:11.193Z,19.62
2017-12-29T05:24:20.428Z,19.59
2017-12-29T05:25:30.161Z,19.58
2017-12-29T05:26:39.408Z,19.61
2017-12-29T05:27:48.328Z,19.61
2017-12-29T05:28:57.277Z,19.59
2017-12-29T05:30:06.489Z,19.56
2017-12-29T05:31:15.510Z,19.55
2017-12-29T05:32:24.489Z,19.5
2017-12-29T05:33:34.213Z,19.56
2017-12-29T05:34:43.108Z,19.54
2017-12-29T05:35:52.036Z,19.55
2017-12-29T05:37:01.319Z,19.58
2017-12-29T05:38:10.027Z,19.58
2017-12-29T05:39:18.949Z,19.55
2017-12-29T05:40:28.135Z,19.63
2017-12-29T05:41:36.904Z,19.58
2017-12-29T05:42:46.149Z,19.56
2017-12-29T05:43:55.097Z,19.55
2017-12-29T05:45:03.767Z,19.55
2017-12-29T05:46:12.762Z,19.56
2017-12-29T05:47:21.720Z,19.56
2017-12-29T05:48:30.959Z,19.56
2017-12-29T05:49:39.627Z,19.55
2017-12-29T05:50:48.840Z,19.51
2017-12-29T05:51:58.141Z,19.58
2017-12-29T05:53:06.868Z,19.56
2017-12-29T05:54:15.962Z,19.56
2017-12-29T05:55:24.921Z,19.55
2017-12-29T05:56:33.867Z,19.56
2017-12-29T05:57:43.332Z,19.55
2017-12-29T05:58:52.538Z,19.56
2017-12-29T06:00:02.248Z,19.56
2017-12-29T06:01:10.940Z,19.56
2017-12-29T06:02:19.684Z,19.55
2017-12-29T06:03:29.235Z,19.55
2017-12-29T06:04:38.445Z,19.5
2017-12-29T06:05:47.399Z,19.54
2017-12-29T06:06:56.427Z,19.5
2017-12-29T06:08:05.956Z,19.54
2017-12-29T06:09:15.083Z,19.58
2017-12-29T06:10:24.272Z,19.54
2017-12-29T06:11:33.461Z,19.51
2017-12-29T06:12:42.839Z,19.51
2017-12-29T06:13:51.591Z,19.48
2017-12-29T06:15:00.522Z,19.51
2017-12-29T06:16:09.711Z,19.55
2017-12-29T06:17:19.188Z,19.56
2017-12-29T06:18:28.421Z,19.48
2017-12-29T06:19:37.491Z,19.54
2017-12-29T06:20:46.738Z,19.48
2017-12-29T06:21:55.663Z,19.55
2017-12-29T06:23:04.416Z,19.54
2017-12-29T06:24:13.673Z,19.47
2017-12-29T06:25:23.119Z,19.41
2017-12-29T06:26:32.103Z,19.48
2017-12-29T06:27:41.336Z,19.5
2017-12-29T06:28:50.724Z,19.51
2017-12-29T06:29:59.651Z,19.56
2017-12-29T06:31:09.058Z,19.46
2017-12-29T06:32:17.744Z,19.46
2017-12-29T06:33:26.768Z,19.51
2017-12-29T06:34:36.085Z,19.46
2017-12-29T06:35:45.333Z,19.54
2017-12-29T06:36:54.353Z,19.46
2017-12-29T06:38:03.310Z,19.55
2017-12-29T06:39:11.998Z,19.47
2017-12-29T06:40:21.482Z,19.48
2017-12-29T06:41:30.682Z,19.43
2017-12-29T06:42:39.624Z,19.43
2017-12-29T06:43:48.846Z,19.44
2017-12-29T06:44:58.339Z,19.5
2017-12-29T06:46:07.284Z,19.41
2017-12-29T06:47:16.224Z,19.54
2017-12-29T06:48:24.955Z,19.47
2017-12-29T06:49:33.576Z,19.44
2017-12-29T06:50:42.350Z,19.41
2017-12-29T06:51:51.576Z,19.41
2017-12-29T06:53:00.779Z,19.48
2017-12-29T06:54:10.009Z,19.47
2017-12-29T06:55:18.949Z,19.44
2017-12-29T06:56:28.150Z,19.47
2017-12-29T06:57:37.787Z,19.47
2017-12-29T06:58:46.464Z,19.4
2017-12-29T06:59:55.901Z,19.43
2017-12-29T07:01:04.744Z,19.48
2017-12-29T07:02:13.787Z,19.48
2017-12-29T07:03:22.794Z,19.5
2017-12-29T07:04:31.470Z,19.51
2017-12-29T07:05:40.418Z,19.5
2017-12-29T07:06:49.807Z,19.44
2017-12-29T07:07:58.495Z,19.41
2017-12-29T07:09:08.048Z,19.48
2017-12-29T07:10:16.977Z,19.47
2017-12-29T07:11:25.907Z,19.5
2017-12-29T07:12:34.756Z,19.47
2017-12-29T07:13:43.762Z,19.43
2017-12-29T07:14:52.488Z,19.47
2017-12-29T07:16:01.976Z,19.46
2017-12-29T07:17:11.431Z,19.48
2017-12-29T07:18:20.373Z,19.43
2017-12-29T07:19:29.065Z,19.46
2017-12-29T07:20:38.255Z,19.43
2017-12-29T07:21:46.947Z,19.44
2017-12-29T07:22:55.879Z,19.37
2017-12-29T07:24:04.927Z,19.39
2017-12-29T07:25:14.332Z,19.4
2017-12-29T07:26:23.274Z,19.46
2017-12-29T07:27:32.210Z,19.39
2017-12-29T07:28:41.146Z,19.4
2017-12-29T07:29:50.401Z,19.43
2017-12-29T07:30:59.496Z,19.41
2017-12-29T07:32:08.435Z,19.48
2017-12-29T07:33:17.149Z,19.4
2017-12-29T07:34:26.203Z,19.39
2017-12-29T07:35:35.400Z,19.43
2017-12-29T07:36:44.625Z,19.4
2017-12-29T07:37:53.260Z,19.44
2017-12-29T07:39:02.515Z,19.33
2017-12-29T07:40:11.475Z,19.36
2017-12-29T07:41:20.700Z,19.5
2017-12-29T07:42:29.906Z,19.41
2017-12-29T07:43:39.453Z,19.41
2017-12-29T07:44:48.597Z,19.48
2017-12-29T07:45:57.857Z,19.44
2017-12-29T07:47:07.123Z,19.47
2017-12-29T07:48:16.429Z,19.46
2017-12-29T07:49:25.488Z,19.44
2017-12-29T07:50:34.503Z,19.37
2017-12-29T07:51:43.531Z,19.39
2017-12-29T07:52:52.731Z,19.4
2017-12-29T07:54:01.926Z,19.47
2017-12-29T07:55:10.859Z,19.4
2017-12-29T07:56:20.053Z,19.39
2017-12-29T07:57:28.997Z,19.5
2017-12-29T07:58:37.940Z,19.4
2017-12-29T07:59:46.917Z,19.46
2017-12-29T08:00:55.688Z,19.48
2017-12-29T08:02:04.645Z,19.39
2017-12-29T08:03:13.609Z,19.41
2017-12-29T08:04:22.304Z,19.39
2017-12-29T08:05:30.980Z,19.4
2017-12-29T08:06:40.184Z,19.47
2017-12-29T08:07:49.200Z,19.46
2017-12-29T08:08:57.928Z,19.48
2017-12-29T08:10:06.885Z,19.48
2017-12-29T08:11:16.117Z,19.44
2017-12-29T08:12:25.054Z,19.46
2017-12-29T08:13:34.270Z,19.47
2017-12-29T08:14:43.534Z,19.4
2017-12-29T08:15:52.205Z,19.4
2017-12-29T08:17:01.139Z,19.43
2017-12-29T08:18:10.340Z,19.48
2017-12-29T08:19:19.303Z,19.47
2017-12-29T08:20:28.499Z,19.51
2017-12-29T08:21:37.958Z,19.41
2017-12-29T08:22:47.404Z,19.47
2017-12-29T08:23:56.615Z,19.4
2017-12-29T08:25:05.606Z,19.47
2017-12-29T08:26:14.845Z,19.46
2017-12-29T08:27:23.621Z,19.43
2017-12-29T08:28:32.904Z,19.5
2017-12-29T08:29:42.495Z,19.46
2017-12-29T08:30:51.180Z,19.5
2017-12-29T08:32:00.106Z,19.56
2017-12-29T08:33:09.124Z,19.58
2017-12-29T08:34:18.323Z,19.58
2017-12-29T08:35:27.688Z,19.68
2017-12-29T08:36:36.890Z,19.68
2017-12-29T08:37:46.233Z,19.77
2017-12-29T08:38:54.961Z,19.86
2017-12-29T08:40:04.225Z,19.84
2017-12-29T08:41:13.223Z,20.01
2017-12-29T08:42:21.984Z,20.02
2017-12-29T08:43:31.188Z,20.1
2017-12-29T08:44:39.880Z,20.18
2017-12-29T08:45:49.124Z,20.23
2017-12-29T08:46:58.364Z,20.21
2017-12-29T08:48:07.820Z,20.29
2017-12-29T08:49:16.780Z,20.38
2017-12-29T08:50:25.547Z,20.42
2017-12-29T08:51:34.346Z,20.48
2017-12-29T08:52:43.569Z,20.51
2017-12-29T08:53:52.243Z,20.5
2017-12-29T08:55:01.503Z,20.62
2017-12-29T08:56:10.554Z,20.67
2017-12-29T08:57:19.300Z,20.74
2017-12-29T08:58:28.532Z,20.69
2017-12-29T08:59:37.819Z,20.76
2017-12-29T09:00:46.510Z,20.79
2017-12-29T09:01:55.469Z,20.77
2017-12-29T09:03:04.741Z,20.88
2017-12-29T09:04:13.729Z,20.99
2017-12-29T09:05:22.809Z,20.99
2017-12-29T09:06:31.897Z,20.99
2017-12-29T09:07:40.840Z,20.99
2017-12-29T09:08:50.042Z,21.1
2017-12-29T09:09:59.264Z,21.03
2017-12-29T09:11:08.042Z,21.14
2017-12-29T09:12:17.641Z,21.13
2017-12-29T09:13:26.776Z,21.22
2017-12-29T09:14:35.652Z,21.25
2017-12-29T09:15:44.477Z,21.25
2017-12-29T09:16:53.491Z,21.31
2017-12-29T09:18:02.835Z,21.31
2017-12-29T09:19:11.800Z,21.34
2017-12-29T09:20:20.494Z,21.35
2017-12-29T09:21:29.445Z,21.37
2017-12-29T09:22:38.466Z,21.37
2017-12-29T09:23:47.436Z,21.44
2017-12-29T09:24:56.145Z,21.42
2017-12-29T09:26:04.848Z,21.4
2017-12-29T09:27:13.675Z,21.43
2017-12-29T09:28:22.607Z,21.58
2017-12-29T09:29:31.568Z,21.61
2017-12-29T09:30:40.828Z,21.59
2017-12-29T09:31:50.056Z,21.65
2017-12-29T09:32:59.257Z,21.75
2017-12-29T09:34:08.274Z,21.86
2017-12-29T09:35:16.967Z,21.9
2017-12-29T09:36:25.649Z,21.91
2017-12-29T09:37:34.315Z,21.91
2017-12-29T09:38:43.518Z,21.99
2017-12-29T09:39:52.983Z,21.98
2017-12-29T09:41:01.664Z,22.07
2017-12-29T09:42:11.139Z,22.06
2017-12-29T09:43:20.656Z,22.05
2017-12-29T09:44:29.590Z,22.21
2017-12-29T09:45:38.309Z,22.2
2017-12-29T09:46:47.236Z,22.15
2017-12-29T09:47:56.615Z,22.14
2017-12-29T09:49:05.882Z,22.27
2017-12-29T09:50:15.108Z,22.3
2017-12-29T09:51:24.656Z,22.3
2017-12-29T09:52:34.161Z,22.36
2017-12-29T09:53:42.897Z,22.42
2017-12-29T09:54:51.837Z,22.45
2017-12-29T09:56:01.148Z,22.45
2017-12-29T09:57:10.271Z,22.42
2017-12-29T09:58:18.998Z,22.52
2017-12-29T09:59:28.249Z,22.58
2017-12-29T10:00:36.938Z,22.52
2017-12-29T10:01:46.156Z,22.58
2017-12-29T10:02:55.124Z,22.61
2017-12-29T10:04:04.163Z,22.64
2017-12-29T10:05:12.872Z,22.6
2017-12-29T10:06:21.555Z,22.6
2017-12-29T10:07:30.875Z,22.6
2017-12-29T10:08:39.876Z,22.58
2017-12-29T10:09:48.561Z,22.54
2017-12-29T10:10:58.280Z,22.61
2017-12-29T10:12:07.839Z,22.64
2017-12-29T10:13:17.317Z,22.62
2017-12-29T10:14:26.278Z,22.62
2017-12-29T10:15:35.779Z,22.61
2017-12-29T10:16:45.226Z,22.6
2017-12-29T10:17:54.941Z,22.54
2017-12-29T10:19:03.886Z,22.58
2017-12-29T10:20:12.570Z,22.49
2017-12-29T10:21:21.507Z,22.58
2017-12-29T10:22:30.710Z,22.6
2017-12-29T10:23:39.654Z,22.61
2017-12-29T10:24:48.922Z,22.52
2017-12-29T10:25:57.889Z,22.45
2017-12-29T10:27:07.358Z,22.46
2017-12-29T10:28:16.038Z,22.36
2017-12-29T10:29:24.991Z,22.39
2017-12-29T10:30:33.973Z,22.4
2017-12-29T10:31:42.684Z,22.36
2017-12-29T10:32:51.885Z,22.27
2017-12-29T10:34:00.601Z,22.07
2017-12-29T10:35:09.817Z,21.98
2017-12-29T10:36:18.778Z,21.65
2017-12-29T10:37:27.742Z,21.4
2017-12-29T10:38:36.757Z,21.21
2017-12-29T10:39:45.963Z,20.89
2017-12-29T10:40:54.942Z,20.79
2017-12-29T10:42:03.931Z,20.5
2017-12-29T10:43:12.672Z,20.33
2017-12-29T10:44:21.937Z,20.21
2017-12-29T10:45:31.263Z,19.98
2017-12-29T10:46:39.980Z,19.81
2017-12-29T10:47:49.018Z,19.63
2017-12-29T10:48:58.805Z,19.55
2017-12-29T10:50:08.000Z,19.36
2017-12-29T10:51:17.185Z,19.25
2017-12-29T10:52:26.736Z,19.13
2017-12-29T10:53:36.031Z,18.91
2017-12-29T10:54:45.130Z,18.84
2017-12-29T10:55:54.152Z,18.75
2017-12-29T10:57:02.896Z,18.63
2017-12-29T10:58:12.873Z,18.47
2017-12-29T10:59:24.020Z,18.37
2017-12-29T11:00:32.798Z,18.27
2017-12-29T11:01:41.840Z,18.2
2017-12-29T11:02:50.884Z,18.17
2017-12-29T11:04:00.822Z,18.05
2017-12-29T11:05:10.063Z,18.02
2017-12-29T11:06:19.757Z,17.89
2017-12-29T11:07:29.289Z,17.89
2017-12-29T11:08:38.331Z,17.87
2017-12-29T11:09:47.657Z,17.9
2017-12-29T11:10:57.439Z,18
2017-12-29T11:12:07.050Z,17.96
2017-12-29T11:13:15.720Z,18.21
2017-12-29T11:14:24.409Z,18.23
2017-12-29T11:15:33.082Z,18.32
2017-12-29T11:16:42.023Z,18.3
2017-12-29T11:17:51.394Z,18.45
2017-12-29T11:19:00.691Z,18.65
2017-12-29T11:20:09.841Z,18.7
2017-12-29T11:21:19.324Z,18.72
2017-12-29T11:22:28.518Z,18.78
2017-12-29T11:23:37.745Z,18.98
2017-12-29T11:24:46.429Z,18.92
2017-12-29T11:25:55.425Z,18.95
2017-12-29T11:27:04.902Z,18.95
2017-12-29T11:28:13.817Z,19
2017-12-29T11:29:22.816Z,19.16
2017-12-29T11:30:31.790Z,19.11
2017-12-29T11:31:40.470Z,19.18
2017-12-29T11:32:49.929Z,19.25
2017-12-29T11:33:59.446Z,19.29
2017-12-29T11:35:08.968Z,19.32
2017-12-29T11:36:19.108Z,19.4
2017-12-29T11:37:27.875Z,19.39
2017-12-29T11:38:36.880Z,19.37
2017-12-29T11:39:45.804Z,19.5
2017-12-29T11:40:55.262Z,19.43
2017-12-29T11:42:04.767Z,19.51
2017-12-29T11:43:14.014Z,19.61
2017-12-29T11:44:22.948Z,19.56
2017-12-29T11:45:32.424Z,19.59
2017-12-29T11:46:42.227Z,19.62
2017-12-29T11:47:51.731Z,19.68
2017-12-29T11:49:01.002Z,19.68
2017-12-29T11:50:10.218Z,19.71
2017-12-29T11:51:20.005Z,19.63
2017-12-29T11:52:28.949Z,19.62
2017-12-29T11:53:37.638Z,19.66
2017-12-29T11:54:46.576Z,19.68
2017-12-29T11:55:55.768Z,19.63
2017-12-29T11:57:04.448Z,19.71
2017-12-29T11:58:13.382Z,19.69
2017-12-29T11:59:22.374Z,19.68
2017-12-29T12:00:31.337Z,19.71
2017-12-29T12:01:40.266Z,19.73
2017-12-29T12:02:49.531Z,19.73
2017-12-29T12:03:58.198Z,19.71
2017-12-29T12:05:06.883Z,19.73
2017-12-29T12:06:16.069Z,19.81
2017-12-29T12:07:25.285Z,19.76
2017-12-29T12:08:34.474Z,19.8
2017-12-29T12:09:43.665Z,19.8
2017-12-29T12:10:53.113Z,19.77
2017-12-29T12:12:01.801Z,19.78
2017-12-29T12:13:10.472Z,19.77
2017-12-29T12:14:19.409Z,19.84
2017-12-29T12:15:28.615Z,19.84
2017-12-29T12:16:37.287Z,19.83
2017-12-29T12:17:46.496Z,19.83
2017-12-29T12:18:56.134Z,19.86
2017-12-29T12:20:05.329Z,19.86
2017-12-29T12:21:14.019Z,19.83
2017-12-29T12:22:23.474Z,19.86
2017-12-29T12:23:32.419Z,19.81
2017-12-29T12:24:41.359Z,19.77
2017-12-29T12:25:50.549Z,19.8
2017-12-29T12:26:59.243Z,19.84
2017-12-29T12:28:07.910Z,19.77
2017-12-29T12:29:17.101Z,19.87
2017-12-29T12:30:26.302Z,19.83
2017-12-29T12:31:34.963Z,19.73
2017-12-29T12:32:43.897Z,19.71
2017-12-29T12:33:53.102Z,19.83
2017-12-29T12:35:02.288Z,19.73
2017-12-29T12:36:11.214Z,19.73
2017-12-29T12:37:20.139Z,19.84
2017-12-29T12:38:29.086Z,19.84
2017-12-29T12:39:38.279Z,19.71
2017-12-29T12:40:47.473Z,19.84
2017-12-29T12:41:56.414Z,19.73
2017-12-29T12:43:05.363Z,19.83
2017-12-29T12:44:14.306Z,19.8
2017-12-29T12:45:23.510Z,19.8
2017-12-29T12:46:32.959Z,19.73
2017-12-29T12:47:41.652Z,19.77
2017-12-29T12:48:50.321Z,19.81
2017-12-29T12:49:59.517Z,19.74
2017-12-29T12:51:08.712Z,19.74
2017-12-29T12:52:18.174Z,19.77
2017-12-29T12:53:27.156Z,19.81
2017-12-29T12:54:36.621Z,19.83
2017-12-29T12:55:45.571Z,19.83
2017-12-29T12:56:54.764Z,19.88
2017-12-29T12:58:04.471Z,19.86
2017-12-29T12:59:13.404Z,19.76
2017-12-29T13:00:22.424Z,19.8
2017-12-29T13:01:31.365Z,19.8
2017-12-29T13:02:40.577Z,19.8
2017-12-29T13:03:49.752Z,19.77
2017-12-29T13:04:58.686Z,19.83
2017-12-29T13:06:07.880Z,19.81
2017-12-29T13:07:16.808Z,19.81
2017-12-29T13:08:26.016Z,19.83
2017-12-29T13:09:35.202Z,19.81
2017-12-29T13:10:44.164Z,19.73
2017-12-29T13:11:52.842Z,19.74
2017-12-29T13:13:01.798Z,19.73
2017-12-29T13:14:10.993Z,19.78
2017-12-29T13:15:20.200Z,19.73
2017-12-29T13:16:29.977Z,19.74
2017-12-29T13:17:39.178Z,19.74
2017-12-29T13:18:48.103Z,19.76
2017-12-29T13:19:57.040Z,19.74
2017-12-29T13:21:06.247Z,19.78
2017-12-29T13:22:15.195Z,19.73
2017-12-29T13:23:24.150Z,19.74
2017-12-29T13:24:33.091Z,19.78
2017-12-29T13:25:41.762Z,19.74
2017-12-29T13:26:50.431Z,19.76
2017-12-29T13:27:59.369Z,19.78
2017-12-29T13:29:09.089Z,19.73
2017-12-29T13:30:18.030Z,19.76
2017-12-29T13:31:27.237Z,19.73
2017-12-29T13:32:36.469Z,19.8
2017-12-29T13:33:45.135Z,19.73
2017-12-29T13:34:54.333Z,19.74
2017-12-29T13:36:03.272Z,19.84
2017-12-29T13:37:11.970Z,19.86
2017-12-29T13:38:20.911Z,19.81
2017-12-29T13:39:30.102Z,19.81
2017-12-29T13:40:39.040Z,19.8
2017-12-29T13:41:47.988Z,19.88
2017-12-29T13:42:57.443Z,19.86
2017-12-29T13:44:06.640Z,19.84
2017-12-29T13:45:15.580Z,19.87
2017-12-29T13:46:24.778Z,19.87
2017-12-29T13:47:33.466Z,19.86
2017-12-29T13:48:42.404Z,19.88
2017-12-29T13:49:51.846Z,19.98
2017-12-29T13:51:01.123Z,19.96
2017-12-29T13:52:10.349Z,19.98
2017-12-29T13:53:19.088Z,19.99
2017-12-29T13:54:28.036Z,20.02
2017-12-29T13:55:37.234Z,20.03
2017-12-29T13:56:46.460Z,19.99
2017-12-29T13:57:55.301Z,19.96
2017-12-29T13:59:03.975Z,19.96
2017-12-29T14:00:12.906Z,19.98
2017-12-29T14:01:22.363Z,20.01
2017-12-29T14:02:31.419Z,20.05
2017-12-29T14:03:40.064Z,19.95
2017-12-29T14:04:49.063Z,19.98
2017-12-29T14:05:57.756Z,19.95
2017-12-29T14:07:06.687Z,19.96
2017-12-29T14:08:15.919Z,19.95
2017-12-29T14:09:25.378Z,20.05
2017-12-29T14:10:35.532Z,19.99
2017-12-29T14:11:44.466Z,19.98
2017-12-29T14:12:53.939Z,19.99
2017-12-29T14:14:03.129Z,19.96
2017-12-29T14:15:12.333Z,19.98
2017-12-29T14:16:21.348Z,19.98
2017-12-29T14:17:30.363Z,20.02
2017-12-29T14:18:39.068Z,20.08
2017-12-29T14:19:48.001Z,19.99
2017-12-29T14:20:56.937Z,20.05
2017-12-29T14:22:06.179Z,20.01
2017-12-29T14:23:15.394Z,19.99
2017-12-29T14:24:24.136Z,20.01
2017-12-29T14:25:32.819Z,20.02
2017-12-29T14:26:41.786Z,19.99
2017-12-29T14:27:50.782Z,19.99
2017-12-29T14:28:59.717Z,19.98
2017-12-29T14:30:08.720Z,19.94
2017-12-29T14:31:18.203Z,19.99
2017-12-29T14:32:26.904Z,19.98
2017-12-29T14:33:36.597Z,20.03
2017-12-29T14:34:45.577Z,19.94
2017-12-29T14:35:54.767Z,19.94
2017-12-29T14:37:03.600Z,19.94
2017-12-29T14:38:12.830Z,19.91
2017-12-29T14:39:22.029Z,19.86
2017-12-29T14:40:30.967Z,19.94
2017-12-29T14:41:39.961Z,19.88
2017-12-29T14:42:49.448Z,19.8
2017-12-29T14:43:58.654Z,19.84
2017-12-29T14:45:07.415Z,19.92
2017-12-29T14:46:16.838Z,19.87
2017-12-29T14:47:25.514Z,19.86
2017-12-29T14:48:34.719Z,19.86
2017-12-29T14:49:43.404Z,19.83
2017-12-29T14:50:52.219Z,19.81
2017-12-29T14:52:02.194Z,19.81
2017-12-29T14:53:11.502Z,19.86
2017-12-29T14:54:20.447Z,19.87